sensor_id;sensor_type;location;lat;lon;timestamp;pressure;altitude;pressure_sealevel;temperature;humidity
28000;BME280;15328;50.860;10.562;2023-02-20T00:02:17;97202.72;;;7.83;67.33
28000;BME280;15328;50.860;10.562;2023-02-20T00:07:17;97221.25;;;7.83;67.38
28000;BME280;15328;50.860;10.562;2023-02-20T00:12:18;97228.56;;;7.81;67.40
28000;BME280;15328;50.860;10.562;2023-02-20T00:17:18;97212.75;;;7.73;67.47
28000;BME280;15328;50.860;10.562;2023-02-20T00:22:20;97220.72;;;7.73;67.67
28000;BME280;15328;50.860;10.562;2023-02-20T00:27:21;97203.81;;;7.74;67.25
28000;BME280;15328;50.860;10.562;2023-02-20T00:32:21;97204.38;;;7.69;67.55
28000;BME280;15328;50.860;10.562;2023-02-20T00:37:22;97203.81;;;7.74;67.55
28000;BME280;15328;50.860;10.562;2023-02-20T00:42:22;97199.25;;;7.68;66.87
28000;BME280;15328;50.860;10.562;2023-02-20T00:47:22;97196.94;;;7.65;67.42
28000;BME280;15328;50.860;10.562;2023-02-20T00:52:23;97187.16;;;7.65;66.62
28000;BME280;15328;50.860;10.562;2023-02-20T00:57:23;97191.59;;;7.73;66.50
28000;BME280;15328;50.860;10.562;2023-02-20T01:02:24;97184.69;;;7.64;66.24
28000;BME280;15328;50.860;10.562;2023-02-20T01:07:24;97185.88;;;7.61;66.58
28000;BME280;15328;50.860;10.562;2023-02-20T01:12:25;97186.72;;;7.62;66.13
28000;BME280;15328;50.860;10.562;2023-02-20T01:17:25;97189.44;;;7.54;66.68
28000;BME280;15328;50.860;10.562;2023-02-20T01:22:25;97166.63;;;7.53;66.57
28000;BME280;15328;50.860;10.562;2023-02-20T01:27:26;97164.78;;;7.53;66.10
28000;BME280;15328;50.860;10.562;2023-02-20T01:32:26;97162.06;;;7.47;66.30
28000;BME280;15328;50.860;10.562;2023-02-20T01:37:27;97165.88;;;7.44;65.61
28000;BME280;15328;50.860;10.562;2023-02-20T01:42:30;97160.78;;;7.42;65.52
28000;BME280;15328;50.860;10.562;2023-02-20T01:47:31;97140.28;;;7.36;64.87
28000;BME280;15328;50.860;10.562;2023-02-20T01:52:34;97128.34;;;7.26;64.92
28000;BME280;15328;50.860;10.562;2023-02-20T01:57:37;97124.59;;;7.20;64.97
28000;BME280;15328;50.860;10.562;2023-02-20T02:02:45;97113.97;;;7.05;64.64
28000;BME280;15328;50.860;10.562;2023-02-20T02:07:47;97118.38;;;7.13;63.87
28000;BME280;15328;50.860;10.562;2023-02-20T02:12:50;97113.13;;;6.90;64.94
28000;BME280;15328;50.860;10.562;2023-02-20T02:50:31;97098.63;;;6.63;63.48
28000;BME280;15328;50.860;10.562;2023-02-20T02:55:34;97080.41;;;6.45;62.86
28000;BME280;15328;50.860;10.562;2023-02-20T03:00:47;97085.75;;;6.37;63.21
28000;BME280;15328;50.860;10.562;2023-02-20T03:06:11;97108.34;;;6.40;63.41
28000;BME280;15328;50.860;10.562;2023-02-20T03:11:19;97119.28;;;6.37;63.36
28000;BME280;15328;50.860;10.562;2023-02-20T03:16:31;97103.72;;;6.42;62.90
28000;BME280;15328;50.860;10.562;2023-02-20T03:21:33;97097.78;;;6.40;63.17
28000;BME280;15328;50.860;10.562;2023-02-20T03:26:36;97088.88;;;6.41;63.27
28000;BME280;15328;50.860;10.562;2023-02-20T03:31:54;97083.63;;;6.33;62.82
28000;BME280;15328;50.860;10.562;2023-02-20T03:37:18;97088.75;;;6.34;62.32
28000;BME280;15328;50.860;10.562;2023-02-20T03:42:42;97074.63;;;6.19;62.12
28000;BME280;15328;50.860;10.562;2023-02-20T03:48:07;97066.81;;;6.26;62.01
28000;BME280;15328;50.860;10.562;2023-02-20T03:53:09;97070.00;;;6.21;61.71
28000;BME280;15328;50.860;10.562;2023-02-20T03:58:11;97081.13;;;6.08;62.63
28000;BME280;15328;50.860;10.562;2023-02-20T04:03:17;97073.81;;;6.18;62.41
28000;BME280;15328;50.860;10.562;2023-02-20T04:08:23;97092.25;;;5.96;62.72
28000;BME280;15328;50.860;10.562;2023-02-20T04:13:30;97095.06;;;5.94;62.95
28000;BME280;15328;50.860;10.562;2023-02-20T04:18:32;97091.88;;;6.07;61.99
28000;BME280;15328;50.860;10.562;2023-02-20T04:23:37;97104.44;;;6.05;62.42
28000;BME280;15328;50.860;10.562;2023-02-20T04:28:39;97109.56;;;6.06;62.11
28000;BME280;15328;50.860;10.562;2023-02-20T04:33:40;97101.44;;;6.08;62.78
28000;BME280;15328;50.860;10.562;2023-02-20T04:38:40;97106.84;;;6.14;62.43
28000;BME280;15328;50.860;10.562;2023-02-20T04:43:41;97099.81;;;6.07;62.76
28000;BME280;15328;50.860;10.562;2023-02-20T04:48:41;97087.44;;;5.99;63.12
28000;BME280;15328;50.860;10.562;2023-02-20T04:53:41;97089.44;;;5.89;63.54
28000;BME280;15328;50.860;10.562;2023-02-20T04:58:45;97084.22;;;5.81;64.44
28000;BME280;15328;50.860;10.562;2023-02-20T05:03:47;97088.50;;;5.90;64.55
28000;BME280;15328;50.860;10.562;2023-02-20T05:08:48;97090.13;;;5.91;64.27
28000;BME280;15328;50.860;10.562;2023-02-20T05:13:48;97070.00;;;5.90;63.88
28000;BME280;15328;50.860;10.562;2023-02-20T05:18:49;97076.88;;;5.99;63.34
28000;BME280;15328;50.860;10.562;2023-02-20T05:23:49;97068.75;;;5.70;64.63
28000;BME280;15328;50.860;10.562;2023-02-20T05:28:49;97061.94;;;5.83;64.17
28000;BME280;15328;50.860;10.562;2023-02-20T05:33:50;97059.41;;;5.59;65.15
28000;BME280;15328;50.860;10.562;2023-02-20T05:38:50;97046.06;;;5.52;66.12
28000;BME280;15328;50.860;10.562;2023-02-20T05:43:51;97015.28;;;5.76;65.23
28000;BME280;15328;50.860;10.562;2023-02-20T05:48:53;97006.66;;;5.43;66.12
28000;BME280;15328;50.860;10.562;2023-02-20T05:53:54;96981.31;;;5.34;66.75
28000;BME280;15328;50.860;10.562;2023-02-20T05:58:55;96996.81;;;5.37;66.67
28000;BME280;15328;50.860;10.562;2023-02-20T06:03:55;97000.91;;;5.39;66.65
28000;BME280;15328;50.860;10.562;2023-02-20T06:08:56;96993.09;;;5.15;68.16
28000;BME280;15328;50.860;10.562;2023-02-20T06:13:56;96970.34;;;5.22;67.71
28000;BME280;15328;50.860;10.562;2023-02-20T06:18:57;96993.75;;;5.17;67.80
28000;BME280;15328;50.860;10.562;2023-02-20T06:23:59;96978.63;;;5.03;68.11
28000;BME280;15328;50.860;10.562;2023-02-20T06:28:59;96980.16;;;4.97;68.72
28000;BME280;15328;50.860;10.562;2023-02-20T06:33:59;96983.19;;;5.17;67.08
28000;BME280;15328;50.860;10.562;2023-02-20T06:39:00;96970.94;;;5.32;66.52
28000;BME280;15328;50.860;10.562;2023-02-20T06:44:01;96968.44;;;5.39;66.25
28000;BME280;15328;50.860;10.562;2023-02-20T06:49:01;96985.53;;;5.51;66.04
28000;BME280;15328;50.860;10.562;2023-02-20T06:54:03;96983.31;;;5.32;66.76
28000;BME280;15328;50.860;10.562;2023-02-20T06:59:04;96984.53;;;5.13;68.02
28000;BME280;15328;50.860;10.562;2023-02-20T07:04:06;96989.34;;;5.01;68.73
28000;BME280;15328;50.860;10.562;2023-02-20T07:09:07;96996.03;;;5.20;68.42
28000;BME280;15328;50.860;10.562;2023-02-20T07:14:08;97005.94;;;5.18;67.73
28000;BME280;15328;50.860;10.562;2023-02-20T07:19:08;96997.72;;;5.13;67.77
28000;BME280;15328;50.860;10.562;2023-02-20T07:24:09;96999.31;;;5.30;67.49
28000;BME280;15328;50.860;10.562;2023-02-20T07:29:11;96985.13;;;5.31;66.80
28000;BME280;15328;50.860;10.562;2023-02-20T07:34:12;96970.34;;;5.53;66.46
28000;BME280;15328;50.860;10.562;2023-02-20T07:39:12;96945.72;;;5.61;65.84
28000;BME280;15328;50.860;10.562;2023-02-20T07:44:13;96965.25;;;5.51;65.70
28000;BME280;15328;50.860;10.562;2023-02-20T07:49:13;96965.78;;;5.70;65.18
28000;BME280;15328;50.860;10.562;2023-02-20T07:54:14;96961.94;;;5.80;64.38
28000;BME280;15328;50.860;10.562;2023-02-20T07:59:14;96955.63;;;5.89;64.43
28000;BME280;15328;50.860;10.562;2023-02-20T08:04:15;96956.38;;;5.98;64.25
28000;BME280;15328;50.860;10.562;2023-02-20T08:09:15;96946.41;;;5.85;64.49
28000;BME280;15328;50.860;10.562;2023-02-20T08:14:16;96929.47;;;6.03;63.88
28000;BME280;15328;50.860;10.562;2023-02-20T08:19:16;96926.50;;;6.20;62.93
28000;BME280;15328;50.860;10.562;2023-02-20T08:24:16;96929.56;;;6.09;63.27
28000;BME280;15328;50.860;10.562;2023-02-20T08:29:17;96932.53;;;6.29;62.74
28000;BME280;15328;50.860;10.562;2023-02-20T08:34:17;96914.84;;;6.30;62.48
28000;BME280;15328;50.860;10.562;2023-02-20T08:39:17;96906.09;;;6.29;62.41
28000;BME280;15328;50.860;10.562;2023-02-20T08:44:18;96904.44;;;6.13;63.98
28000;BME280;15328;50.860;10.562;2023-02-20T08:49:19;96886.34;;;6.25;64.13
28000;BME280;15328;50.860;10.562;2023-02-20T08:54:19;96890.25;;;6.14;63.96
28000;BME280;15328;50.860;10.562;2023-02-20T08:59:20;96909.81;;;6.05;64.66
28000;BME280;15328;50.860;10.562;2023-02-20T09:04:20;96858.25;;;6.09;64.28
28000;BME280;15328;50.860;10.562;2023-02-20T09:09:22;96892.25;;;6.27;64.25
28000;BME280;15328;50.860;10.562;2023-02-20T09:14:23;96893.66;;;6.00;64.95
28000;BME280;15328;50.860;10.562;2023-02-20T09:19:23;96884.59;;;6.17;64.86
28000;BME280;15328;50.860;10.562;2023-02-20T09:24:23;96861.56;;;6.26;65.27
28000;BME280;15328;50.860;10.562;2023-02-20T09:29:24;96865.94;;;6.48;64.85
28000;BME280;15328;50.860;10.562;2023-02-20T09:34:24;96868.47;;;6.27;64.62
28000;BME280;15328;50.860;10.562;2023-02-20T09:39:25;96864.94;;;6.49;65.29
28000;BME280;15328;50.860;10.562;2023-02-20T09:49:37;96883.47;;;6.79;64.19
28000;BME280;15328;50.860;10.562;2023-02-20T09:54:42;96904.31;;;7.18;63.72
28000;BME280;15328;50.860;10.562;2023-02-20T10:00:08;96866.75;;;7.44;62.29
28000;BME280;15328;50.860;10.562;2023-02-20T10:05:20;96911.53;;;7.82;60.50
28000;BME280;15328;50.860;10.562;2023-02-20T10:16:07;96903.88;;;9.40;54.48
28000;BME280;15328;50.860;10.562;2023-02-20T10:21:16;96889.38;;;10.23;53.06
28000;BME280;15328;50.860;10.562;2023-02-20T10:26:28;96899.44;;;11.19;49.83
28000;BME280;15328;50.860;10.562;2023-02-20T10:31:51;96886.94;;;12.33;46.88
28000;BME280;15328;50.860;10.562;2023-02-20T10:36:59;96863.41;;;12.92;43.87
28000;BME280;15328;50.860;10.562;2023-02-20T10:42:16;96859.22;;;13.51;43.72
28000;BME280;15328;50.860;10.562;2023-02-20T10:47:34;96866.09;;;13.58;41.16
28000;BME280;15328;50.860;10.562;2023-02-20T10:52:53;96860.06;;;13.93;41.11
28000;BME280;15328;50.860;10.562;2023-02-20T10:58:01;96844.06;;;14.05;38.31
28000;BME280;15328;50.860;10.562;2023-02-20T11:03:13;96831.28;;;14.18;39.06
28000;BME280;15328;50.860;10.562;2023-02-20T11:08:14;96832.81;;;14.26;38.28
28000;BME280;15328;50.860;10.562;2023-02-20T11:13:22;96819.56;;;14.31;38.12
28000;BME280;15328;50.860;10.562;2023-02-20T11:18:26;96810.72;;;14.31;38.77
28000;BME280;15328;50.860;10.562;2023-02-20T11:28:37;96833.31;;;14.81;36.99
28000;BME280;15328;50.860;10.562;2023-02-20T11:33:44;96822.13;;;14.49;35.71
28000;BME280;15328;50.860;10.562;2023-02-20T11:38:47;96818.72;;;15.01;36.36
28000;BME280;15328;50.860;10.562;2023-02-20T11:44:04;96805.22;;;15.07;35.59
28000;BME280;15328;50.860;10.562;2023-02-20T11:49:09;96813.66;;;14.52;35.60
28000;BME280;15328;50.860;10.562;2023-02-20T11:54:16;96773.50;;;14.29;36.54
28000;BME280;15328;50.860;10.562;2023-02-20T12:04:35;96758.34;;;14.81;36.28
28000;BME280;15328;50.860;10.562;2023-02-20T12:09:36;96755.44;;;15.40;35.84
28000;BME280;15328;50.860;10.562;2023-02-20T12:14:36;96770.75;;;15.56;35.00
28000;BME280;15328;50.860;10.562;2023-02-20T12:20:00;96731.34;;;16.41;34.64
28000;BME280;15328;50.860;10.562;2023-02-20T12:25:17;96705.41;;;16.29;33.67
28000;BME280;15328;50.860;10.562;2023-02-20T12:30:43;96685.59;;;16.96;34.08
28000;BME280;15328;50.860;10.562;2023-02-20T12:41:19;96687.88;;;17.63;33.47
28000;BME280;15328;50.860;10.562;2023-02-20T12:46:36;96667.91;;;17.54;33.90
28000;BME280;15328;50.860;10.562;2023-02-20T12:51:59;96665.59;;;16.65;34.40
28000;BME280;15328;50.860;10.562;2023-02-20T12:57:19;96676.19;;;17.20;34.51
28000;BME280;15328;50.860;10.562;2023-02-20T13:02:36;96654.34;;;17.12;34.78
28000;BME280;15328;50.860;10.562;2023-02-20T13:07:46;96653.09;;;16.97;34.81
28000;BME280;15328;50.860;10.562;2023-02-20T13:12:50;96656.41;;;16.39;35.60
28000;BME280;15328;50.860;10.562;2023-02-20T13:33:27;96622.44;;;16.06;36.90
28000;BME280;15328;50.860;10.562;2023-02-20T13:38:28;96603.16;;;15.70;37.61
28000;BME280;15328;50.860;10.562;2023-02-20T13:43:30;96612.59;;;16.33;36.98
28000;BME280;15328;50.860;10.562;2023-02-20T13:53:33;96602.16;;;16.81;35.74
28000;BME280;15328;50.860;10.562;2023-02-20T13:58:33;96604.63;;;17.14;35.91
28000;BME280;15328;50.860;10.562;2023-02-20T14:03:34;96637.06;;;17.03;35.47
28000;BME280;15328;50.860;10.562;2023-02-20T14:08:36;96643.56;;;16.85;35.85
28000;BME280;15328;50.860;10.562;2023-02-20T14:13:39;96642.56;;;16.91;36.09
28000;BME280;15328;50.860;10.562;2023-02-20T14:18:40;96653.72;;;16.78;36.25
28000;BME280;15328;50.860;10.562;2023-02-20T14:23:41;96654.53;;;16.18;37.59
28000;BME280;15328;50.860;10.562;2023-02-20T14:28:45;96648.97;;;15.52;38.67
28000;BME280;15328;50.860;10.562;2023-02-20T14:33:52;96658.63;;;15.36;39.58
28000;BME280;15328;50.860;10.562;2023-02-20T14:39:55;96650.72;;;15.30;40.36
28000;BME280;15328;50.860;10.562;2023-02-20T14:44:36;96642.84;;;15.23;40.77
28000;BME280;15328;50.860;10.562;2023-02-20T14:49:37;96647.34;;;15.34;40.69
28000;BME280;15328;50.860;10.562;2023-02-20T14:54:40;96643.81;;;15.34;40.59
28000;BME280;15328;50.860;10.562;2023-02-20T14:59:41;96660.28;;;15.09;41.15
28000;BME280;15328;50.860;10.562;2023-02-20T15:09:53;96647.88;;;13.99;43.55
28000;BME280;15328;50.860;10.562;2023-02-20T15:14:57;96646.72;;;13.72;44.86
28000;BME280;15328;50.860;10.562;2023-02-20T15:19:59;96640.78;;;13.46;45.25
28000;BME280;15328;50.860;10.562;2023-02-20T15:30:19;96635.41;;;12.93;47.02
28000;BME280;15328;50.860;10.562;2023-02-20T15:35:23;96628.50;;;12.85;47.26
28000;BME280;15328;50.860;10.562;2023-02-20T15:40:30;96630.09;;;12.75;47.74
28000;BME280;15328;50.860;10.562;2023-02-20T15:45:30;96645.56;;;12.54;48.12
28000;BME280;15328;50.860;10.562;2023-02-20T15:50:31;96648.47;;;12.53;48.26
28000;BME280;15328;50.860;10.562;2023-02-20T15:55:33;96650.94;;;12.36;48.52
28000;BME280;15328;50.860;10.562;2023-02-20T16:00:34;96660.56;;;12.37;48.74
28000;BME280;15328;50.860;10.562;2023-02-20T16:05:34;96664.50;;;12.34;48.99
28000;BME280;15328;50.860;10.562;2023-02-20T16:10:35;96660.03;;;12.28;48.71
28000;BME280;15328;50.860;10.562;2023-02-20T16:15:35;96646.78;;;12.22;49.54
28000;BME280;15328;50.860;10.562;2023-02-20T16:20:35;96678.88;;;12.33;49.05
28000;BME280;15328;50.860;10.562;2023-02-20T16:25:36;96661.97;;;12.21;49.50
28000;BME280;15328;50.860;10.562;2023-02-20T16:30:39;96666.72;;;12.19;49.55
28000;BME280;15328;50.860;10.562;2023-02-20T16:40:42;96668.41;;;12.14;49.56
28000;BME280;15328;50.860;10.562;2023-02-20T16:45:43;96662.13;;;12.08;49.44
28000;BME280;15328;50.860;10.562;2023-02-20T16:50:47;96673.22;;;12.05;49.87
28000;BME280;15328;50.860;10.562;2023-02-20T16:55:50;96661.66;;;11.93;49.81
28000;BME280;15328;50.860;10.562;2023-02-20T17:00:51;96671.78;;;11.84;50.04
28000;BME280;15328;50.860;10.562;2023-02-20T17:05:52;96672.25;;;11.81;49.96
28000;BME280;15328;50.860;10.562;2023-02-20T17:10:59;96681.84;;;11.57;50.37
28000;BME280;15328;50.860;10.562;2023-02-20T17:15:59;96672.47;;;11.48;50.89
28000;BME280;15328;50.860;10.562;2023-02-20T17:20:59;96684.97;;;11.48;50.83
28000;BME280;15328;50.860;10.562;2023-02-20T17:26:00;96697.91;;;11.44;50.95
28000;BME280;15328;50.860;10.562;2023-02-20T17:31:01;96697.53;;;11.40;51.38
28000;BME280;15328;50.860;10.562;2023-02-20T17:36:01;96700.19;;;11.40;50.82
28000;BME280;15328;50.860;10.562;2023-02-20T17:41:02;96710.47;;;11.37;50.90
28000;BME280;15328;50.860;10.562;2023-02-20T17:46:03;96719.13;;;11.32;51.16
28000;BME280;15328;50.860;10.562;2023-02-20T17:51:03;96716.78;;;11.42;51.40
28000;BME280;15328;50.860;10.562;2023-02-20T17:56:04;96719.50;;;11.36;51.25
28000;BME280;15328;50.860;10.562;2023-02-20T18:01:04;96713.09;;;11.43;50.74
28000;BME280;15328;50.860;10.562;2023-02-20T18:06:05;96711.94;;;11.33;51.16
28000;BME280;15328;50.860;10.562;2023-02-20T18:11:06;96695.75;;;11.34;51.40
28000;BME280;15328;50.860;10.562;2023-02-20T18:16:06;96700.91;;;11.29;51.73
28000;BME280;15328;50.860;10.562;2023-02-20T18:21:34;96700.97;;;11.16;51.81
28000;BME280;15328;50.860;10.562;2023-02-20T18:26:35;96695.28;;;11.12;51.58
28000;BME280;15328;50.860;10.562;2023-02-20T18:31:36;96687.94;;;11.08;52.19
28000;BME280;15328;50.860;10.562;2023-02-20T18:36:36;96679.41;;;10.99;52.11
28000;BME280;15328;50.860;10.562;2023-02-20T18:41:37;96701.28;;;11.01;52.13
28000;BME280;15328;50.860;10.562;2023-02-20T18:46:37;96698.19;;;11.04;52.18
28000;BME280;15328;50.860;10.562;2023-02-20T18:51:41;96701.72;;;10.98;52.47
28000;BME280;15328;50.860;10.562;2023-02-20T18:56:46;96695.38;;;10.99;52.75
28000;BME280;15328;50.860;10.562;2023-02-20T19:01:47;96700.31;;;10.96;52.91
28000;BME280;15328;50.860;10.562;2023-02-20T19:06:47;96690.84;;;11.00;52.78
28000;BME280;15328;50.860;10.562;2023-02-20T19:11:54;96703.53;;;11.04;52.73
28000;BME280;15328;50.860;10.562;2023-02-20T19:16:56;96714.81;;;11.00;53.04
28000;BME280;15328;50.860;10.562;2023-02-20T19:21:58;96713.94;;;11.06;52.89
28000;BME280;15328;50.860;10.562;2023-02-20T19:27:00;96702.09;;;11.02;53.10
28000;BME280;15328;50.860;10.562;2023-02-20T19:32:00;96704.38;;;10.98;52.92
28000;BME280;15328;50.860;10.562;2023-02-20T19:37:02;96705.16;;;11.05;52.91
28000;BME280;15328;50.860;10.562;2023-02-20T19:42:03;96698.63;;;11.01;53.44
28000;BME280;15328;50.860;10.562;2023-02-20T19:47:04;96707.03;;;10.98;53.79
28000;BME280;15328;50.860;10.562;2023-02-20T19:52:04;96701.13;;;10.96;54.40
28000;BME280;15328;50.860;10.562;2023-02-20T19:57:05;96696.66;;;10.83;54.11
28000;BME280;15328;50.860;10.562;2023-02-20T20:02:09;96697.69;;;10.82;54.53
28000;BME280;15328;50.860;10.562;2023-02-20T20:07:10;96695.69;;;10.78;55.00
28000;BME280;15328;50.860;10.562;2023-02-20T20:12:10;96692.81;;;10.79;54.86
28000;BME280;15328;50.860;10.562;2023-02-20T20:17:29;96689.72;;;10.82;54.61
28000;BME280;15328;50.860;10.562;2023-02-20T20:22:30;96691.81;;;10.67;55.37
28000;BME280;15328;50.860;10.562;2023-02-20T20:27:31;96689.19;;;10.61;55.93
28000;BME280;15328;50.860;10.562;2023-02-20T20:32:31;96679.16;;;10.63;55.95
28000;BME280;15328;50.860;10.562;2023-02-20T20:37:35;96686.81;;;10.46;55.77
28000;BME280;15328;50.860;10.562;2023-02-20T20:42:36;96692.16;;;10.33;56.42
28000;BME280;15328;50.860;10.562;2023-02-20T20:47:36;96694.44;;;10.29;56.60
28000;BME280;15328;50.860;10.562;2023-02-20T20:52:37;96704.69;;;10.26;57.13
28000;BME280;15328;50.860;10.562;2023-02-20T20:57:38;96706.13;;;10.15;56.98
28000;BME280;15328;50.860;10.562;2023-02-20T21:02:40;96707.16;;;10.14;57.40
28000;BME280;15328;50.860;10.562;2023-02-20T21:07:40;96681.00;;;9.98;57.75
28000;BME280;15328;50.860;10.562;2023-02-20T21:12:41;96681.00;;;9.84;58.09
28000;BME280;15328;50.860;10.562;2023-02-20T21:17:41;96683.88;;;9.83;58.15
28000;BME280;15328;50.860;10.562;2023-02-20T21:22:42;96691.25;;;9.87;57.91
28000;BME280;15328;50.860;10.562;2023-02-20T21:27:43;96699.44;;;9.73;59.09
28000;BME280;15328;50.860;10.562;2023-02-20T21:32:43;96697.97;;;9.77;58.65
28000;BME280;15328;50.860;10.562;2023-02-20T21:37:44;96713.31;;;9.81;58.68
28000;BME280;15328;50.860;10.562;2023-02-20T21:42:44;96725.97;;;9.79;59.01
28000;BME280;15328;50.860;10.562;2023-02-20T21:48:04;96706.78;;;9.77;59.26
28000;BME280;15328;50.860;10.562;2023-02-20T21:53:04;96706.38;;;9.67;59.40
28000;BME280;15328;50.860;10.562;2023-02-20T21:58:04;96707.00;;;9.69;59.45
28000;BME280;15328;50.860;10.562;2023-02-20T22:03:05;96703.53;;;9.69;59.23
28000;BME280;15328;50.860;10.562;2023-02-20T22:08:05;96707.59;;;9.71;59.46
28000;BME280;15328;50.860;10.562;2023-02-20T22:13:24;96717.63;;;9.69;59.50
28000;BME280;15328;50.860;10.562;2023-02-20T22:18:43;96713.09;;;9.76;59.44
28000;BME280;15328;50.860;10.562;2023-02-20T22:24:02;96705.56;;;9.73;59.54
28000;BME280;15328;50.860;10.562;2023-02-20T22:29:21;96695.16;;;9.65;59.47
28000;BME280;15328;50.860;10.562;2023-02-20T22:34:40;96701.69;;;9.69;59.63
28000;BME280;15328;50.860;10.562;2023-02-20T22:39:59;96690.84;;;9.64;60.13
28000;BME280;15328;50.860;10.562;2023-02-20T22:45:18;96682.47;;;9.67;59.86
28000;BME280;15328;50.860;10.562;2023-02-20T22:50:37;96682.47;;;9.67;59.64
28000;BME280;15328;50.860;10.562;2023-02-20T22:55:56;96689.19;;;9.76;59.51
28000;BME280;15328;50.860;10.562;2023-02-20T23:01:15;96694.13;;;9.66;59.73
28000;BME280;15328;50.860;10.562;2023-02-20T23:06:34;96688.63;;;9.61;60.43
28000;BME280;15328;50.860;10.562;2023-02-20T23:11:53;96682.28;;;9.62;60.38
28000;BME280;15328;50.860;10.562;2023-02-20T23:17:12;96686.16;;;9.66;60.38
28000;BME280;15328;50.860;10.562;2023-02-20T23:22:31;96699.44;;;9.66;60.08
28000;BME280;15328;50.860;10.562;2023-02-20T23:27:50;96694.94;;;9.67;60.41
28000;BME280;15328;50.860;10.562;2023-02-20T23:33:09;96692.91;;;9.69;60.31
28000;BME280;15328;50.860;10.562;2023-02-20T23:38:28;96695.13;;;9.58;60.95
28000;BME280;15328;50.860;10.562;2023-02-20T23:43:47;96695.56;;;9.62;60.40
28000;BME280;15328;50.860;10.562;2023-02-20T23:49:06;96706.38;;;9.67;60.00
28000;BME280;15328;50.860;10.562;2023-02-20T23:54:24;96709.25;;;9.59;60.34
28000;BME280;15328;50.860;10.562;2023-02-20T23:59:43;96691.88;;;9.63;60.54
